createdAt,value
2022-09-03T06:51:44.161Z,13.88
2022-09-03T06:54:53.745Z,13.93
2022-09-03T06:58:03.160Z,13.98
2022-09-03T07:01:14.890Z,14.12
2022-09-03T07:04:24.792Z,14.20
2022-09-03T07:07:35.454Z,14.30
2022-09-03T07:10:48.904Z,14.44
2022-09-03T07:13:59.369Z,14.50
2022-09-03T07:17:08.793Z,14.55
2022-09-03T07:20:18.223Z,14.61
2022-09-03T07:23:32.053Z,14.72
2022-09-03T07:26:44.476Z,14.85
2022-09-03T07:29:54.037Z,15.00
2022-09-03T07:33:04.392Z,15.19
2022-09-03T07:36:16.056Z,15.39
2022-09-03T07:39:28.668Z,15.56
2022-09-03T07:42:40.274Z,15.72
2022-09-03T07:45:51.625Z,15.89
2022-09-03T07:49:02.685Z,16.05
2022-09-03T07:52:12.205Z,16.12
2022-09-03T07:55:27.591Z,16.12
2022-09-03T07:58:37.960Z,16.10
2022-09-03T08:01:47.410Z,16.10
2022-09-03T08:05:04.010Z,16.10
2022-09-03T08:08:15.517Z,16.09
2022-09-03T08:11:31.272Z,16.13
2022-09-03T08:14:42.742Z,16.14
2022-09-03T08:18:03.511Z,16.15
2022-09-03T08:21:17.406Z,16.18
2022-09-03T08:24:27.061Z,16.27
2022-09-03T08:27:37.761Z,16.42
2022-09-03T08:42:20.484Z,17.15
2022-09-03T08:45:32.720Z,17.27
2022-09-03T08:48:42.199Z,17.35
2022-09-03T08:51:55.619Z,17.43
2022-09-03T08:55:19.092Z,17.45
2022-09-03T08:58:33.414Z,17.55
2022-09-03T09:01:56.233Z,17.63
2022-09-03T09:05:14.381Z,17.69
2022-09-03T09:08:31.034Z,17.69
2022-09-03T09:11:50.241Z,17.88
2022-09-03T09:15:10.966Z,18.32
2022-09-03T09:18:32.163Z,19.07
2022-09-03T09:21:46.803Z,20.02
2022-09-03T09:25:00.085Z,20.71
2022-09-03T09:28:17.131Z,21.38
2022-09-03T09:31:30.787Z,22.20
2022-09-03T09:34:42.050Z,22.44
2022-09-03T09:37:53.673Z,22.63
2022-09-03T09:41:10.773Z,22.92
2022-09-03T09:44:21.946Z,23.48
2022-09-03T09:47:38.126Z,23.31
2022-09-03T09:50:49.137Z,23.14
2022-09-03T09:54:03.839Z,23.10
2022-09-03T09:57:18.448Z,22.88
2022-09-03T10:00:28.154Z,22.78
2022-09-03T10:03:42.920Z,22.99
2022-09-03T10:06:57.777Z,23.27
2022-09-03T10:10:15.987Z,23.76
2022-09-03T10:13:42.849Z,24.07
2022-09-03T10:17:02.213Z,24.78
2022-09-03T10:20:27.109Z,25.52
2022-09-03T10:23:50.040Z,25.76
2022-09-03T10:26:59.483Z,25.64
2022-09-03T10:30:10.044Z,25.18
2022-09-03T10:33:26.769Z,24.87
2022-09-03T10:36:41.539Z,25.03
2022-09-03T10:40:05.506Z,25.09
2022-09-03T10:43:33.039Z,25.12
2022-09-03T10:46:56.376Z,25.62
2022-09-03T10:50:16.172Z,25.40
2022-09-03T10:53:38.508Z,24.64
2022-09-03T10:56:58.310Z,23.94
2022-09-03T11:00:12.767Z,24.12
2022-09-03T11:03:44.885Z,24.18
2022-09-03T11:07:01.792Z,23.92
2022-09-03T11:10:17.659Z,23.83
2022-09-03T11:13:35.673Z,23.80
2022-09-03T11:16:49.211Z,23.99
2022-09-03T11:20:09.206Z,24.26
2022-09-03T11:23:20.823Z,24.17
2022-09-03T11:26:31.286Z,23.92
2022-09-03T11:29:50.761Z,23.65
2022-09-03T11:33:09.205Z,23.33
2022-09-03T11:36:30.990Z,23.14
2022-09-03T11:39:41.592Z,22.92
2022-09-03T11:42:51.164Z,22.68
2022-09-03T11:46:11.892Z,22.69
2022-09-03T11:49:30.941Z,22.74
2022-09-03T11:52:40.766Z,22.71
2022-09-03T11:55:55.497Z,22.66
2022-09-03T11:59:18.924Z,22.56
2022-09-03T12:02:34.258Z,22.57
2022-09-03T12:05:53.547Z,22.59
2022-09-03T12:09:18.498Z,22.81
2022-09-03T12:12:46.062Z,23.07
2022-09-03T12:16:20.876Z,23.52
2022-09-03T12:19:40.972Z,23.98
2022-09-03T12:22:50.436Z,24.07
2022-09-03T12:26:04.849Z,24.05
2022-09-03T12:29:26.639Z,24.02
2022-09-03T12:32:38.036Z,23.95
2022-09-03T12:35:59.057Z,23.84
2022-09-03T12:39:13.262Z,23.82
2022-09-03T12:42:27.285Z,23.89
2022-09-03T12:49:31.737Z,23.76
2022-09-03T12:52:49.871Z,23.78
2022-09-03T12:56:02.222Z,24.02
2022-09-03T12:59:16.507Z,24.29
2022-09-03T13:02:31.551Z,24.29
2022-09-03T13:05:49.122Z,24.78
2022-09-03T13:09:02.890Z,25.63
2022-09-03T13:12:24.151Z,26.19
2022-09-03T13:15:34.304Z,25.85
2022-09-03T13:18:48.740Z,25.34
2022-09-03T13:22:05.665Z,24.84
2022-09-03T13:25:25.759Z,24.64
2022-09-03T13:28:48.893Z,24.88
2022-09-03T13:32:06.200Z,24.88
2022-09-03T13:35:27.976Z,24.79
2022-09-03T13:38:44.048Z,25.28
2022-09-03T13:41:59.495Z,25.80
2022-09-03T13:45:21.945Z,26.74
2022-09-03T13:48:46.357Z,26.88
2022-09-03T13:52:00.121Z,26.18
2022-09-03T13:55:16.138Z,25.33
2022-09-03T13:58:32.026Z,24.73
2022-09-03T14:01:59.788Z,24.24
2022-09-03T14:05:16.259Z,23.90
2022-09-03T14:08:33.489Z,23.77
2022-09-03T14:11:58.742Z,23.60
2022-09-03T14:15:21.570Z,23.51
2022-09-03T14:18:42.422Z,23.34
2022-09-03T14:21:57.417Z,23.33
2022-09-03T14:25:15.621Z,23.09
2022-09-03T14:28:32.604Z,22.94
2022-09-03T14:32:01.747Z,22.94
2022-09-03T14:35:31.752Z,22.96
2022-09-03T14:39:09.794Z,22.94
2022-09-03T14:42:37.807Z,22.76
2022-09-03T14:46:03.692Z,22.58
2022-09-03T14:49:28.138Z,22.52
2022-09-03T14:52:59.000Z,22.45
2022-09-03T14:56:26.799Z,22.41
2022-09-03T14:59:52.782Z,22.36
2022-09-03T15:03:21.489Z,22.31
2022-09-03T15:06:51.630Z,22.22
2022-09-03T15:10:13.227Z,22.12
2022-09-03T15:13:26.126Z,22.02
2022-09-03T15:16:48.153Z,21.81
2022-09-03T15:20:10.977Z,21.57
2022-09-03T15:23:26.855Z,21.33
2022-09-03T15:26:48.382Z,20.85
2022-09-03T15:30:06.190Z,20.49
2022-09-03T15:33:28.913Z,20.15
2022-09-03T15:36:42.201Z,19.87
2022-09-03T15:40:04.086Z,19.55
2022-09-03T15:43:22.038Z,19.18
2022-09-03T15:46:40.918Z,19.00
2022-09-03T15:50:00.206Z,18.77
2022-09-03T15:53:25.483Z,18.50
2022-09-03T15:56:43.868Z,18.38
2022-09-03T16:00:02.739Z,18.17
2022-09-03T16:03:24.265Z,18.21
2022-09-03T16:06:44.182Z,18.22
2022-09-03T16:10:24.159Z,18.15
2022-09-03T16:13:50.193Z,18.23
2022-09-03T16:17:06.323Z,18.35
2022-09-03T16:20:22.194Z,18.47
2022-09-03T16:23:39.337Z,18.60
2022-09-03T16:26:56.143Z,18.71
2022-09-03T16:30:13.214Z,18.84
2022-09-03T16:33:35.522Z,18.90
2022-09-03T16:36:54.899Z,18.98
2022-09-03T16:40:16.097Z,19.01
2022-09-03T16:43:41.126Z,19.02
2022-09-03T16:47:02.033Z,19.15
2022-09-03T16:50:26.949Z,19.27
2022-09-03T16:53:52.600Z,19.36
2022-09-03T16:57:15.372Z,19.46
2022-09-03T17:00:29.679Z,19.59
2022-09-03T17:03:56.691Z,19.76
2022-09-03T17:07:24.266Z,19.93
2022-09-03T17:10:44.860Z,19.95
2022-09-03T17:14:10.008Z,19.90
2022-09-03T17:17:34.471Z,19.87
2022-09-03T17:20:56.159Z,19.72
2022-09-03T17:24:24.411Z,19.52
2022-09-03T17:27:48.056Z,19.39
2022-09-03T17:30:59.261Z,19.16
2022-09-03T17:34:20.036Z,18.99
2022-09-03T17:37:43.782Z,18.87
2022-09-03T17:41:04.803Z,18.82
2022-09-03T17:44:20.885Z,18.72
2022-09-03T17:47:49.956Z,18.59
2022-09-03T17:51:05.915Z,18.48
2022-09-03T17:54:27.964Z,18.43
2022-09-03T17:57:44.391Z,18.32
2022-09-03T18:01:01.831Z,18.21
2022-09-03T18:04:25.027Z,18.09
2022-09-03T18:07:44.740Z,18.00
2022-09-03T18:11:09.800Z,17.99
2022-09-03T18:14:27.038Z,17.93
2022-09-03T18:17:45.689Z,17.86
2022-09-03T18:21:30.899Z,17.84
2022-09-03T18:24:55.537Z,17.74
2022-09-03T18:28:21.377Z,17.63
2022-09-03T18:31:46.697Z,17.57
2022-09-03T18:35:07.687Z,17.54
2022-09-03T18:38:43.404Z,17.44
2022-09-03T18:42:17.749Z,17.36
2022-09-03T18:46:34.221Z,17.29
2022-09-03T18:49:41.508Z,17.30
2022-09-03T18:53:08.143Z,17.28
2022-09-03T18:56:41.225Z,17.30
2022-09-03T19:00:13.954Z,17.24
2022-09-03T19:03:51.476Z,17.15
2022-09-03T19:07:20.706Z,17.18
2022-09-03T19:10:50.268Z,17.17
2022-09-03T19:14:21.098Z,17.13
2022-09-03T19:17:50.881Z,17.04
2022-09-03T19:21:27.475Z,16.98
2022-09-03T19:24:49.167Z,16.95
2022-09-03T19:28:21.932Z,16.86
2022-09-03T19:31:55.187Z,16.85
2022-09-03T19:35:27.022Z,16.81
2022-09-03T19:39:01.585Z,16.72
2022-09-03T19:42:30.738Z,16.59
2022-09-03T19:46:03.715Z,16.55
2022-09-03T19:49:35.411Z,16.51
2022-09-03T19:53:04.413Z,16.39
2022-09-03T19:56:37.500Z,16.25
2022-09-03T20:00:01.100Z,16.20
2022-09-03T20:03:25.457Z,16.17
2022-09-03T20:06:48.321Z,16.11
2022-09-03T20:10:15.981Z,16.08
2022-09-03T20:13:49.520Z,16.05
2022-09-03T20:17:15.696Z,16.02
2022-09-03T20:20:34.395Z,16.05
2022-09-03T20:23:52.206Z,16.10
2022-09-03T20:27:11.793Z,16.09
2022-09-03T20:30:28.379Z,16.07
2022-09-03T20:33:50.668Z,15.99
2022-09-03T20:37:16.157Z,15.92
2022-09-03T20:40:35.631Z,15.89
2022-09-03T20:44:00.051Z,15.78
2022-09-03T20:47:26.652Z,15.68
2022-09-03T20:50:45.997Z,15.60
2022-09-03T20:54:11.048Z,15.54
2022-09-03T20:57:33.211Z,15.52
2022-09-03T21:00:50.852Z,15.54
2022-09-03T21:04:18.852Z,15.53
2022-09-03T21:07:42.128Z,15.42
2022-09-03T21:10:57.613Z,15.43
2022-09-03T21:14:19.864Z,15.43
2022-09-03T21:17:42.526Z,15.39
2022-09-03T21:21:02.826Z,15.30
2022-09-03T21:24:17.621Z,15.24
2022-09-03T21:27:34.332Z,15.22
2022-09-03T21:30:49.265Z,15.13
2022-09-03T21:34:08.665Z,15.09
2022-09-03T21:37:20.649Z,15.05
2022-09-03T21:40:32.311Z,15.01
2022-09-03T21:43:49.721Z,14.97
2022-09-03T21:47:03.151Z,14.92
2022-09-03T21:50:18.993Z,14.84
2022-09-03T21:53:33.637Z,14.84
2022-09-03T21:56:54.717Z,14.83
2022-09-03T22:00:12.532Z,14.84
2022-09-03T22:03:23.001Z,14.84
2022-09-03T22:06:39.773Z,14.83
2022-09-03T22:09:59.209Z,14.82
2022-09-03T22:13:23.378Z,14.78
2022-09-03T22:16:39.446Z,14.81
2022-09-03T22:19:48.932Z,14.89
2022-09-03T22:23:05.754Z,14.99
